Time;durP1;ratioP1;P1;durP2;ratioP2;P2;SDS_P1;SDS_P2;PMS_P1;PMS_P2;Temp;Humidity;BMP_temperature;BMP_pressure;BME280_temperature;BME280_humidity;BME280_pressure;Samples;Min_cycle;Max_cycle;Signal;HPM_P1;HPM_P2
2022/06/17 00:00:19;;;;;;;5.70;3.40;;;;;;;22.54;46.82;96144.47;5016905;28;20206;-84
2022/06/17 00:02:46;;;;;;;4.28;3.47;;;;;;;22.52;46.85;96151.78;5016322;28;20296;-84
2022/06/17 00:05:12;;;;;;;6.03;3.70;;;;;;;22.42;47.12;96139.31;5016905;28;20202;-82
2022/06/17 00:07:41;;;;;;;8.07;3.50;;;;;;;22.36;47.15;96143.66;5014862;28;20218;-83
2022/06/17 00:10:20;;;;;;;4.40;3.70;;;;;;;22.33;47.14;96131.00;5014827;28;20566;-85
2022/06/17 00:12:47;;;;;;;3.75;3.33;;;;;;;22.34;46.95;96137.06;5013351;28;20265;-85
2022/06/17 00:15:14;;;;;;;4.22;3.83;;;;;;;22.38;46.87;96130.31;5015099;28;20198;-83
2022/06/17 00:17:40;;;;;;;3.80;3.47;;;;;;;22.33;46.78;96125.75;5015945;28;20689;-83
2022/06/17 00:20:08;;;;;;;5.78;3.70;;;;;;;22.31;47.32;96125.22;5015311;28;20206;-83
2022/06/17 00:22:37;;;;;;;4.95;3.50;;;;;;;22.29;46.95;96118.63;5002010;28;20235;-83
2022/06/17 00:25:14;;;;;;;4.80;3.70;;;;;;;22.28;47.14;96120.47;5001339;28;20210;-83
2022/06/17 00:27:40;;;;;;;5.35;4.00;;;;;;;22.22;47.10;96121.41;5015806;28;20234;-83
2022/06/17 00:30:27;;;;;;;3.70;3.33;;;;;;;22.19;47.30;96124.47;5014565;28;20195;-83
2022/06/17 00:32:54;;;;;;;3.72;3.42;;;;;;;22.12;47.76;96128.31;5014672;28;20250;-84
2022/06/17 00:35:22;;;;;;;3.67;3.15;;;;;;;22.03;47.81;96125.25;5015312;28;20264;-84
2022/06/17 00:37:49;;;;;;;5.75;3.20;;;;;;;21.97;48.07;96132.19;5012964;28;20226;-85
2022/06/17 00:40:28;;;;;;;3.92;3.42;;;;;;;21.93;48.37;96135.53;5012999;28;20191;-83
2022/06/17 00:42:55;;;;;;;5.97;3.70;;;;;;;21.92;48.06;96132.13;5014175;28;20245;-82
2022/06/17 00:45:27;;;;;;;4.05;3.65;;;;;;;21.92;47.95;96133.94;5013959;28;20691;-83
2022/06/17 00:48:01;;;;;;;5.32;3.28;;;;;;;21.79;48.31;96124.50;5014707;28;20215;-83
2022/06/17 00:50:33;;;;;;;4.03;3.28;;;;;;;21.76;48.42;96137.28;5014230;28;20187;-83
2022/06/17 00:53:06;;;;;;;6.03;3.63;;;;;;;21.74;48.42;96136.75;5013221;28;20230;-86
2022/06/17 00:55:49;;;;;;;3.80;3.50;;;;;;;21.65;49.39;96134.47;5013694;28;20201;-85
2022/06/17 01:01:11;;;;;;;3.80;3.42;;;;;;;21.55;49.17;96136.88;5003615;28;20305;-83
2022/06/17 01:03:38;;;;;;;5.03;3.95;;;;;;;21.50;49.21;96149.91;5014102;28;20235;-82
2022/06/17 01:06:09;;;;;;;4.22;3.53;;;;;;;21.49;49.81;96139.66;5013959;28;20199;-83
2022/06/17 01:11:27;;;;;;;3.78;3.47;;;;;;;21.42;50.17;96146.81;5013054;28;20226;-83
2022/06/17 01:13:54;;;;;;;4.20;3.83;;;;;;;21.48;50.03;96143.28;5014350;28;20254;-83
2022/06/17 01:16:31;;;;;;;3.60;3.30;;;;;;;21.50;50.16;96147.28;5014136;28;20206;-82
2022/06/17 01:19:01;;;;;;;4.60;3.58;;;;;;;21.49;50.06;96152.75;5014743;28;20222;-82
2022/06/17 01:21:43;;;;;;;4.20;3.80;;;;;;;21.41;50.13;96153.88;5014352;28;20253;-83
2022/06/17 01:24:15;;;;;;;4.28;3.45;;;;;;;21.43;49.71;96158.91;4994263;28;20306;-84
2022/06/17 01:26:41;;;;;;;4.15;3.85;;;;;;;21.42;50.37;96171.19;5010306;28;20573;-82
2022/06/17 01:29:13;;;;;;;5.18;3.60;;;;;;;21.39;50.10;96174.28;5012480;23;20669;-82
2022/06/17 01:31:55;;;;;;;3.75;3.45;;;;;;;21.42;50.16;96188.75;4993409;28;20242;-83
2022/06/17 01:34:22;;;;;;;3.95;3.65;;;;;;;21.42;49.84;96183.50;4994670;28;20576;-83
2022/06/17 01:36:50;;;;;;;3.80;3.50;;;;;;;21.35;49.67;96181.81;4994466;28;20204;-83
2022/06/17 01:42:00;;;;;;;3.50;3.20;;;;;;;21.17;49.77;96175.84;4984552;28;20207;-83
2022/06/17 01:44:33;;;;;;;5.40;3.13;;;;;;;21.13;49.83;96166.88;4993924;28;20195;-83
2022/06/17 01:47:19;;;;;;;3.83;3.53;;;;;;;21.15;49.65;96175.31;4994522;28;20210;-83
2022/06/17 01:49:49;;;;;;;5.05;3.22;;;;;;;21.08;49.97;96178.03;4993907;28;20203;-83
2022/06/17 01:52:31;;;;;;;3.65;3.35;;;;;;;21.20;49.26;96176.22;4988646;28;20228;-82
2022/06/17 01:55:04;;;;;;;4.82;3.47;;;;;;;21.18;49.21;96174.81;4974930;28;20204;-83
2022/06/17 01:57:35;;;;;;;3.53;3.20;;;;;;;21.18;49.32;96180.06;4975347;28;20735;-82
2022/06/17 02:00:18;;;;;;;3.67;3.17;;;;;;;21.11;49.54;96172.34;4974186;28;20196;-82
2022/06/17 02:02:49;;;;;;;4.40;3.75;;;;;;;21.07;49.35;96165.97;4980293;28;20227;-83
2022/06/17 02:05:16;;;;;;;3.70;3.40;;;;;;;20.99;49.35;96167.09;4994548;28;20208;-83
2022/06/17 02:07:52;;;;;;;6.15;3.35;;;;;;;21.00;49.53;96160.03;4994326;28;20219;-82
2022/06/17 02:10:20;;;;;;;3.85;3.40;;;;;;;20.90;49.79;96157.19;4992743;28;20195;-84
2022/06/17 02:12:47;;;;;;;5.40;3.60;;;;;;;20.92;49.74;96157.75;4993263;28;20290;-83
2022/06/17 02:17:58;;;;;;;3.72;3.42;;;;;;;20.81;49.75;96151.47;4993106;28;20231;-85
2022/06/17 02:20:26;;;;;;;4.57;3.47;;;;;;;20.81;49.57;96151.47;4993090;28;20199;-84
2022/06/17 02:22:54;;;;;;;5.25;3.22;;;;;;;20.81;50.05;96153.31;4983931;28;20240;-83
2022/06/17 02:25:40;;;;;;;3.92;3.53;;;;;;;20.86;49.45;96148.19;4972917;28;20616;-86
2022/06/17 02:28:09;;;;;;;6.32;4.10;;;;;;;20.79;49.46;96148.28;4973797;28;20228;-82
2022/06/17 02:33:23;;;;;;;6.63;4.28;;;;;;;20.73;49.73;96137.94;4948783;28;20323;-83
2022/06/17 02:35:57;;;;;;;8.68;4.03;;;;;;;20.65;49.83;96134.63;4966764;28;20664;-83
2022/06/17 02:38:39;;;;;;;11.27;4.63;;;;;;;20.61;50.11;96137.91;4974132;28;20224;-83
2022/06/17 02:41:12;;;;;;;9.50;5.10;;;;;;;20.64;50.39;96127.81;4972773;28;20196;-83
2022/06/17 02:43:56;;;;;;;;;;;;;;;;;;;;;
2022/06/17 02:46:39;;;;;;;7.63;4.30;;;;;;;20.76;50.64;96138.31;4973539;28;20295;-82
2022/06/17 02:49:16;;;;;;;8.20;4.20;;;;;;;20.79;50.69;96132.59;4973770;28;20215;-83
2022/06/17 02:51:43;;;;;;;4.10;3.78;;;;;;;20.82;50.29;96129.53;4973207;28;20273;-83
2022/06/17 02:54:15;;;;;;;4.28;3.78;;;;;;;20.82;50.44;96124.28;4972920;28;20216;-84
2022/06/17 02:56:54;;;;;;;7.78;3.80;;;;;;;20.84;50.31;96127.47;4974703;28;20575;-83
2022/06/17 02:59:26;;;;;;;5.38;4.15;;;;;;;20.78;50.50;96123.16;4973073;28;20231;-83
2022/06/17 03:01:56;;;;;;;4.05;3.75;;;;;;;20.73;50.88;96120.44;4972468;28;20748;-83
2022/06/17 03:04:37;;;;;;;4.45;3.75;;;;;;;20.71;50.31;96114.63;4973472;28;20211;-84
2022/06/17 03:07:12;;;;;;;4.25;3.75;;;;;;;20.58;50.86;96112.22;4973691;28;20576;-82
2022/06/17 03:09:41;;;;;;;4.20;3.80;;;;;;;20.56;50.64;96107.22;4973382;28;20204;-83
2022/06/17 03:12:21;;;;;;;4.20;3.72;;;;;;;20.52;50.79;96115.75;4972147;28;20316;-84
2022/06/17 03:14:51;;;;;;;4.20;3.90;;;;;;;20.57;50.63;96113.25;4972701;28;20196;-83
2022/06/17 03:17:31;;;;;;;6.43;3.47;;;;;;;20.56;50.64;96124.72;4972630;28;20675;-83
2022/06/17 03:20:01;;;;;;;5.10;3.80;;;;;;;20.59;50.44;96135.53;4972914;28;20204;-82
2022/06/17 03:22:28;;;;;;;4.57;3.80;;;;;;;20.48;51.29;96135.50;4972022;28;20231;-83
2022/06/17 03:25:07;;;;;;;4.95;4.40;;;;;;;20.27;51.91;96142.81;4973246;28;20204;-83
2022/06/17 03:27:45;;;;;;;4.18;3.85;;;;;;;20.24;51.39;96151.13;4972451;28;20239;-83
2022/06/17 03:30:15;;;;;;;4.00;3.63;;;;;;;20.13;52.08;96145.84;4967738;28;20207;-83
2022/06/17 03:32:50;;;;;;;4.75;3.58;;;;;;;20.17;51.43;96147.81;4971211;28;20232;-84
2022/06/17 03:35:22;;;;;;;4.40;4.00;;;;;;;20.15;51.66;96149.06;4972635;28;20579;-83
2022/06/17 03:37:56;;;;;;;6.13;4.07;;;;;;;20.19;51.38;96143.16;4972368;28;20228;-84
2022/06/17 03:40:40;;;;;;;7.72;3.92;;;;;;;20.14;51.95;96152.69;4973384;28;20215;-84
2022/06/17 03:43:12;;;;;;;5.38;3.95;;;;;;;20.10;52.24;96167.22;4958314;28;20240;-82
2022/06/17 03:45:46;;;;;;;4.78;3.90;;;;;;;20.09;51.53;96176.88;4970984;28;20231;-83
2022/06/17 03:48:23;;;;;;;3.95;3.65;;;;;;;20.01;52.19;96175.34;4978671;28;20250;-82
2022/06/17 03:50:50;;;;;;;5.50;3.75;;;;;;;20.00;52.80;96178.22;4976764;28;20204;-85
2022/06/17 03:53:33;;;;;;;4.15;3.78;;;;;;;20.04;52.62;96184.56;4977220;28;20836;-86
2022/06/17 03:56:04;;;;;;;5.55;4.05;;;;;;;20.01;53.04;96193.66;4978809;28;20291;-84
2022/06/17 03:58:34;;;;;;;4.57;4.10;;;;;;;19.94;53.22;96197.38;4978370;28;20212;-84
2022/06/17 04:01:20;;;;;;;6.07;4.00;;;;;;;19.97;53.02;96197.75;4977761;28;20201;-84
2022/06/17 04:03:51;;;;;;;4.60;4.20;;;;;;;19.94;53.41;96195.56;4976937;28;20787;-83
2022/06/17 04:06:40;;;;;;;5.00;3.90;;;;;;;19.97;53.74;96197.75;4966330;28;20209;-84
2022/06/17 04:09:30;;;;;;;4.97;4.47;;;;;;;19.95;53.24;96189.31;4964780;28;20220;-85
2022/06/17 04:12:00;;;;;;;4.47;4.10;;;;;;;20.04;53.53;96181.16;4976889;28;20204;-84
2022/06/17 04:14:32;;;;;;;4.65;4.22;;;;;;;20.07;53.08;96178.09;4977230;28;20204;-84
2022/06/17 04:17:15;;;;;;;5.40;4.22;;;;;;;20.15;52.89;96170.78;4977864;28;20207;-82
2022/06/17 04:19:45;;;;;;;5.53;4.18;;;;;;;20.25;52.42;96163.16;4977779;28;20231;-84
2022/06/17 04:22:20;;;;;;;5.20;4.07;;;;;;;20.35;52.11;96168.69;4966613;28;20232;-84
2022/06/17 04:24:52;;;;;;;5.50;4.07;;;;;;;20.44;51.74;96171.78;4959916;29;20215;-85
2022/06/17 04:27:20;;;;;;;9.45;4.53;;;;;;;20.50;51.70;96178.75;4968239;23;20205;-83
2022/06/17 04:29:53;;;;;;;3.80;3.50;;;;;;;20.53;51.38;96172.28;4978971;28;20215;-82
2022/06/17 04:32:30;;;;;;;6.05;3.90;;;;;;;20.58;51.22;96177.63;4974382;28;20240;-82
2022/06/17 04:34:57;;;;;;;4.38;3.97;;;;;;;20.64;50.84;96184.56;4955605;28;20624;-82
2022/06/17 04:40:48;;;;;;;4.70;3.65;;;;;;;20.64;51.00;96187.19;4963177;28;20216;-82
2022/06/17 04:43:27;;;;;;;4.03;3.63;;;;;;;20.69;50.63;96190.75;4974062;28;20730;-84
2022/06/17 04:46:50;;;;;;;7.57;3.92;;;;;;;20.82;50.59;96197.56;4956085;29;20216;-84
2022/06/17 04:52:44;;;;;;;4.03;3.72;;;;;;;20.95;49.87;96209.69;4861368;28;20232;-83
2022/06/17 04:55:15;;;;;;;4.70;4.10;;;;;;;20.93;50.84;96216.97;4956634;29;20204;-83
2022/06/17 04:58:45;;;;;;;8.18;4.22;;;;;;;20.91;51.17;96229.47;4982201;23;20224;-84
2022/06/17 05:05:09;;;;;;;4.78;3.67;;;;;;;21.10;51.00;96235.41;4910336;29;20224;-83
2022/06/17 05:08:11;;;;;;;4.82;3.95;;;;;;;21.29;50.56;96242.19;4938404;29;20217;-81
2022/06/17 05:20:43;;;;;;;;;;;;;;;;;;;;;
2022/06/17 05:29:57;;;;;;;7.68;5.70;;;;;;;21.82;47.37;96265.63;4711390;30;20227;-83
2022/06/17 05:33:25;;;;;;;;;;;;;;;;;;;;;
2022/06/17 05:35:55;;;;;;;4.10;3.70;;;;;;;21.91;47.04;96272.13;4837879;29;20217;-84
2022/06/17 05:38:21;;;;;;;5.93;4.82;;;;;;;22.00;46.99;96272.56;4850062;29;20228;-85
2022/06/17 05:44:02;;;;;;;5.00;3.47;;;;;;;22.12;46.50;96277.81;4930354;28;20237;-83
2022/06/17 05:46:34;;;;;;;5.07;3.53;;;;;;;22.22;46.46;96273.56;4995362;28;20655;-83
2022/06/17 05:49:15;;;;;;;5.00;3.45;;;;;;;22.17;46.79;96275.28;4996215;28;20764;-83
2022/06/17 05:51:49;;;;;;;4.28;3.42;;;;;;;22.07;46.64;96275.88;4993244;28;20203;-82
2022/06/17 05:54:16;;;;;;;6.13;3.75;;;;;;;22.16;46.54;96282.34;4975879;28;20307;-84
2022/06/17 05:57:44;;;;;;;4.50;3.47;;;;;;;22.25;46.00;96282.78;4994558;28;20250;-83
2022/06/17 06:00:44;;;;;;;8.45;3.85;;;;;;;22.38;46.20;96279.88;4876009;29;20207;-83
2022/06/17 06:03:46;;;;;;;5.20;3.50;;;;;;;22.42;46.31;96285.47;4912779;28;20887;-84
2022/06/17 06:15:27;;;;;;;3.78;3.47;;;;;;;22.65;45.28;96299.31;5001475;28;20188;-83
2022/06/17 06:17:54;;;;;;;3.92;3.40;;;;;;;22.74;45.05;96304.97;5006727;28;20228;-83
2022/06/17 06:20:37;;;;;;;5.32;3.70;;;;;;;22.73;44.22;96308.63;5007903;28;20198;-83
2022/06/17 06:23:07;;;;;;;4.43;3.80;;;;;;;22.76;44.63;96308.16;5013062;28;20226;-82
2022/06/17 06:25:53;;;;;;;4.30;3.38;;;;;;;22.77;44.59;96311.59;5018919;28;20191;-85
2022/06/17 06:28:25;;;;;;;6.43;3.60;;;;;;;22.80;44.93;96311.16;5000719;28;20707;-82
2022/06/17 06:30:58;;;;;;;8.75;3.90;;;;;;;22.81;44.86;96313.53;4998727;28;20210;-84
2022/06/17 06:33:33;;;;;;;3.70;3.10;;;;;;;22.86;44.92;96315.47;5006321;28;20230;-83
2022/06/17 06:36:01;;;;;;;4.45;3.20;;;;;;;22.89;44.50;96325.50;5017976;28;20191;-85
2022/06/17 06:38:27;;;;;;;6.88;3.53;;;;;;;22.89;44.34;96312.38;5018656;28;20226;-84
2022/06/17 06:40:56;;;;;;;6.68;3.17;;;;;;;22.89;44.40;96313.19;5018688;28;20253;-83
2022/06/17 06:43:23;;;;;;;5.55;3.13;;;;;;;22.95;44.84;96321.91;5021197;28;20293;-82
2022/06/17 06:45:53;;;;;;;4.20;3.47;;;;;;;23.00;44.82;96322.81;5020757;28;20198;-83
2022/06/17 06:48:22;;;;;;;3.60;3.30;;;;;;;23.07;44.69;96325.31;5021267;28;20230;-84
2022/06/17 06:50:49;;;;;;;4.70;3.50;;;;;;;23.16;44.87;96328.31;5021942;28;20210;-82
2022/06/17 06:53:17;;;;;;;3.72;3.30;;;;;;;23.27;44.78;96332.72;5021381;28;20250;-84
2022/06/17 06:55:44;;;;;;;4.60;3.30;;;;;;;23.15;44.29;96326.72;5020120;28;20199;-83
2022/06/17 07:01:50;;;;;;;6.60;3.42;;;;;;;23.17;44.44;96335.97;5015669;28;20211;-82
2022/06/17 07:04:33;;;;;;;;;;;;;;;;;;;;;
2022/06/17 07:07:17;;;;;;;3.75;3.40;;;;;;;23.19;44.26;96336.53;4951488;29;20276;-85
2022/06/17 07:13:42;;;;;;;5.72;3.33;;;;;;;23.23;44.36;96342.13;5015594;28;20286;-83
2022/06/17 07:16:10;;;;;;;3.55;3.25;;;;;;;23.35;44.79;96340.19;5010076;28;20215;-83
2022/06/17 07:18:37;;;;;;;8.40;3.50;;;;;;;23.32;43.88;96338.03;5022024;28;20214;-82
2022/06/17 07:21:06;;;;;;;3.97;3.58;;;;;;;23.31;43.57;96341.72;5020513;28;20207;-82
2022/06/17 07:23:36;;;;;;;4.32;3.85;;;;;;;23.29;44.66;96341.94;5020655;28;20233;-82
2022/06/17 07:29:25;;;;;;;;;;;;;;;;;;;;;
2022/06/17 07:32:36;;;;;;;3.67;3.08;;;;;;;23.45;44.82;96332.50;5021520;28;20199;-83
2022/06/17 07:42:37;;;;;;;;;;;;;;;;;;;;;
2022/06/17 07:49:50;;;;;;;;;;;;;;;;;;;;;
2022/06/17 07:56:18;;;;;;;5.35;3.17;;;;;;;24.32;43.04;96345.09;4883627;29;20215;-83
2022/06/17 07:59:45;;;;;;;5.53;3.83;;;;;;;24.53;42.35;96346.94;4903575;29;20223;-83
2022/06/17 08:02:44;;;;;;;3.70;3.30;;;;;;;24.65;42.25;96344.16;4918076;28;20234;-84
2022/06/17 08:12:17;;;;;;;5.35;3.50;;;;;;;24.76;41.51;96348.50;4944396;28;20525;-83
2022/06/17 08:29:15;;;;;;;7.57;3.55;;;;;;;25.27;41.13;96355.09;4918801;28;20378;-82
2022/06/17 08:38:53;;;;;;;5.85;4.07;;;;;;;25.43;43.25;96361.28;4916052;28;20227;-82
2022/06/17 08:41:47;;;;;;;3.55;3.22;;;;;;;25.61;41.41;96366.19;4990740;28;20204;-83
2022/06/17 09:02:03;;;;;;;5.00;3.47;;;;;;;26.09;39.49;96380.28;4755380;29;20266;-85
2022/06/17 09:05:14;;;;;;;;;;;;;;;;;;;;;
2022/06/17 09:07:52;;;;;;;4.95;3.20;;;;;;;26.44;38.70;96390.25;4896109;29;20265;-82
2022/06/17 09:10:43;;;;;;;4.97;3.35;;;;;;;26.50;39.15;96383.97;4911247;29;20210;-82
2022/06/17 09:13:26;;;;;;;4.95;3.28;;;;;;;26.57;38.50;96371.28;4966122;28;20227;-83
2022/06/17 09:16:01;;;;;;;3.83;3.10;;;;;;;26.61;38.00;96379.50;4998048;28;20207;-84
2022/06/17 09:18:31;;;;;;;4.63;3.22;;;;;;;26.75;38.59;96380.59;5005161;28;20300;-83
2022/06/17 09:21:10;;;;;;;4.95;3.30;;;;;;;26.87;37.31;96375.91;5010635;28;20294;-83
2022/06/17 09:23:39;;;;;;;2.78;2.58;;;;;;;26.91;36.47;96366.41;4995579;28;20592;-83
2022/06/17 09:26:10;;;;;;;4.30;2.60;;;;;;;27.09;36.21;96371.22;5001583;28;20241;-84
2022/06/17 09:31:29;;;;;;;3.00;2.70;;;;;;;27.32;36.33;96385.03;5007222;28;20217;-82
2022/06/17 09:34:16;;;;;;;4.20;3.00;;;;;;;27.31;37.10;96376.28;4977507;28;20220;-83
2022/06/17 09:36:50;;;;;;;2.80;2.58;;;;;;;27.32;37.00;96379.75;4981232;28;20206;-83
2022/06/17 09:39:26;;;;;;;4.80;3.08;;;;;;;27.33;36.32;96378.66;4989480;28;20259;-83
2022/06/17 09:42:00;;;;;;;3.50;3.00;;;;;;;27.37;37.60;96377.88;4977589;28;20207;-82
2022/06/17 09:44:35;;;;;;;3.97;2.75;;;;;;;27.58;37.25;96367.31;4988096;28;20204;-82
2022/06/17 09:47:26;;;;;;;3.78;3.10;;;;;;;27.68;36.70;96378.72;4993427;28;20867;-84
2022/06/17 09:50:10;;;;;;;4.35;2.80;;;;;;;27.82;36.64;96377.13;4981703;28;20205;-83
2022/06/17 09:52:41;;;;;;;3.78;2.88;;;;;;;27.91;36.46;96379.22;4978209;28;20917;-83
2022/06/17 09:55:13;;;;;;;4.82;2.42;;;;;;;27.95;34.28;96382.91;4987003;28;20223;-84
2022/06/17 09:57:57;;;;;;;2.47;2.22;;;;;;;27.77;32.62;96381.63;4992133;28;20327;-83
2022/06/17 10:00:27;;;;;;;3.05;2.40;;;;;;;27.84;33.30;96388.22;4984863;28;20667;-83
2022/06/17 10:02:58;;;;;;;4.60;2.53;;;;;;;27.87;33.04;96388.78;4989762;28;20235;-82
2022/06/17 10:05:44;;;;;;;4.65;2.20;;;;;;;27.95;32.94;96390.84;4993226;28;20196;-83
2022/06/17 10:08:29;;;;;;;2.50;2.30;;;;;;;27.93;34.30;96398.28;4979611;28;20293;-83
2022/06/17 10:11:23;;;;;;;;;;;;;;;;;;;;;
2022/06/17 10:14:02;;;;;;;2.95;2.75;;;;;;;28.16;33.83;96387.13;4969995;28;20231;-82
2022/06/17 10:19:50;;;;;;;3.22;2.58;;;;;;;28.12;32.72;96394.00;5015248;23;20285;-84
2022/06/17 10:22:45;;;;;;;4.18;2.90;;;;;;;28.32;33.70;96390.56;5004799;28;20237;-83
2022/06/17 10:25:37;;;;;;;3.25;2.25;;;;;;;28.44;32.84;96393.72;5013792;28;20194;-83
2022/06/17 10:28:35;;;;;;;4.60;2.80;;;;;;;28.52;32.46;96387.84;5016427;23;20598;-84
2022/06/17 10:31:10;;;;;;;2.60;2.40;;;;;;;28.71;33.25;96388.03;4983689;28;20278;-84
2022/06/17 10:33:58;;;;;;;2.38;2.17;;;;;;;28.72;31.66;96384.31;4973906;28;20601;-80
2022/06/17 10:36:28;;;;;;;3.00;2.25;;;;;;;28.86;32.66;96377.41;4980257;28;20207;-81
2022/06/17 10:38:57;;;;;;;6.13;2.50;;;;;;;28.83;31.76;96372.66;4991257;28;20230;-82
2022/06/17 10:41:23;;;;;;;2.95;2.70;;;;;;;28.83;31.07;96372.66;4991024;28;20214;-82
2022/06/17 10:43:52;;;;;;;5.75;3.15;;;;;;;28.76;30.39;96370.25;4991069;28;20269;-81
2022/06/17 10:46:22;;;;;;;3.42;2.72;;;;;;;28.61;31.18;96370.31;4991013;28;20666;-81
2022/06/17 10:48:55;;;;;;;3.08;2.60;;;;;;;28.50;31.61;96364.25;4990572;28;20227;-81
2022/06/17 10:51:22;;;;;;;2.70;2.50;;;;;;;28.66;32.28;96359.72;4993370;28;20586;-83
2022/06/17 10:53:52;;;;;;;2.63;2.42;;;;;;;28.69;32.62;96361.78;4994476;28;20370;-80
2022/06/17 10:56:25;;;;;;;4.15;2.35;;;;;;;28.78;30.93;96357.53;4995168;28;20671;-82
2022/06/17 10:58:57;;;;;;;4.40;2.45;;;;;;;28.86;32.03;96364.91;4995350;28;20223;-83
2022/06/17 11:01:45;;;;;;;3.53;2.60;;;;;;;28.86;31.69;96353.53;4994474;28;20579;-83
2022/06/17 11:04:18;;;;;;;2.75;2.55;;;;;;;28.92;31.77;96360.38;4994456;28;20223;-82
2022/06/17 11:06:52;;;;;;;5.55;2.85;;;;;;;29.10;30.97;96358.94;4994680;28;20203;-83
2022/06/17 11:09:25;;;;;;;2.90;2.30;;;;;;;29.11;31.41;96357.88;4995188;28;20219;-83
2022/06/17 11:12:06;;;;;;;2.53;2.33;;;;;;;29.10;30.86;96362.41;4994524;28;20211;-83
2022/06/17 11:14:40;;;;;;;3.28;2.63;;;;;;;29.18;30.21;96355.72;4994268;28;20254;-86
2022/06/17 11:17:16;;;;;;;4.38;2.30;;;;;;;29.20;30.38;96362.34;4992649;28;20214;-85
2022/06/17 11:19:49;;;;;;;4.47;2.88;;;;;;;29.18;32.13;96356.53;4984861;28;20203;-82
2022/06/17 11:22:27;;;;;;;2.40;2.15;;;;;;;29.32;31.02;96363.84;4993539;28;20254;-82
2022/06/17 11:24:57;;;;;;;2.28;2.08;;;;;;;29.31;29.48;96359.63;4994661;28;20195;-82
2022/06/17 11:27:28;;;;;;;3.45;2.47;;;;;;;29.18;31.20;96363.69;5010009;28;20207;-84
2022/06/17 11:30:10;;;;;;;3.53;2.38;;;;;;;29.30;31.47;96366.78;5013666;28;20218;-83
2022/06/17 11:32:37;;;;;;;3.30;2.28;;;;;;;29.34;31.41;96364.38;5011501;28;20237;-82
2022/06/17 11:35:29;;;;;;;2.50;2.30;;;;;;;29.40;30.49;96356.13;5014980;28;20234;-83
2022/06/17 11:38:15;;;;;;;4.03;2.58;;;;;;;29.45;31.26;96345.47;5014717;28;20226;-82
2022/06/17 11:40:50;;;;;;;2.75;2.17;;;;;;;29.54;29.91;96346.47;5014833;28;20199;-82
2022/06/17 11:43:38;;;;;;;3.95;2.40;;;;;;;29.69;30.41;96331.47;5015395;28;20230;-83
2022/06/17 11:46:10;;;;;;;3.88;2.22;;;;;;;29.69;31.38;96339.44;5016728;28;20293;-82
2022/06/17 11:48:56;;;;;;;2.25;2.05;;;;;;;29.81;31.48;96330.03;5017318;28;20717;-84
2022/06/17 11:51:28;;;;;;;2.83;2.10;;;;;;;29.84;29.63;96326.78;5017101;28;20253;-84
2022/06/17 11:53:59;;;;;;;2.47;2.17;;;;;;;29.84;29.20;96323.34;5015737;28;20227;-85
2022/06/17 11:56:31;;;;;;;2.25;2.10;;;;;;;29.67;28.87;96341.56;5016663;28;20662;-84
2022/06/17 11:59:02;;;;;;;3.65;2.10;;;;;;;29.60;28.99;96325.19;5016032;28;20242;-84
2022/06/17 12:01:29;;;;;;;2.05;1.95;;;;;;;29.59;29.31;96331.56;5014664;28;20230;-85
2022/06/17 12:03:56;;;;;;;3.17;2.17;;;;;;;29.46;29.89;96328.47;5015803;28;20254;-85
2022/06/17 12:06:31;;;;;;;2.10;1.90;;;;;;;29.50;30.32;96339.31;5015804;28;20195;-85
2022/06/17 12:09:16;;;;;;;2.80;2.05;;;;;;;29.58;29.36;96324.69;5016658;28;20273;-85
2022/06/17 12:14:51;;;;;;;2.10;1.90;;;;;;;29.55;30.46;96323.38;5012844;28;20222;-85
2022/06/17 12:17:20;;;;;;;3.50;1.90;;;;;;;29.62;28.87;96315.09;5015770;28;20203;-85
2022/06/17 12:19:47;;;;;;;3.95;1.75;;;;;;;29.71;28.58;96311.53;5015712;28;20226;-84
2022/06/17 12:22:23;;;;;;;2.15;1.90;;;;;;;29.71;28.55;96314.19;5015220;28;20222;-85
2022/06/17 12:24:58;;;;;;;3.95;1.92;;;;;;;29.73;29.13;96322.66;5015178;28;20191;-84
2022/06/17 12:27:28;;;;;;;2.15;2.05;;;;;;;29.77;28.09;96321.03;5014091;28;20198;-85
2022/06/17 12:30:10;;;;;;;2.45;1.80;;;;;;;29.83;27.84;96319.91;5015477;28;20210;-85
2022/06/17 12:32:43;;;;;;;1.75;1.65;;;;;;;29.89;28.21;96318.78;5003090;28;20764;-85
2022/06/17 12:35:31;;;;;;;2.47;1.77;;;;;;;29.98;28.85;96316.34;5011182;28;20230;-85
2022/06/17 12:38:04;;;;;;;2.13;1.90;;;;;;;29.97;30.08;96314.72;5003743;28;20223;-85
2022/06/17 12:40:49;;;;;;;2.15;1.80;;;;;;;30.02;28.11;96316.59;5012889;28;20215;-84
2022/06/17 12:43:27;;;;;;;2.90;2.10;;;;;;;30.06;27.65;96310.41;4999541;28;20223;-84
2022/06/17 12:46:14;;;;;;;2.00;1.90;;;;;;;30.01;28.04;96307.81;4989148;28;20610;-85
2022/06/17 12:55:05;;;;;;;2.25;2.05;;;;;;;29.95;30.39;96306.25;4995949;28;20222;-85
2022/06/17 12:57:39;;;;;;;2.25;2.00;;;;;;;29.96;29.69;96302.53;4996479;28;20207;-85
2022/06/17 13:00:24;;;;;;;2.50;2.30;;;;;;;30.12;28.73;96300.53;4995284;28;20207;-85
2022/06/17 13:03:22;;;;;;;2.95;2.20;;;;;;;30.03;28.84;96294.22;4986233;28;20231;-84
2022/06/17 13:05:50;;;;;;;2.60;2.35;;;;;;;30.07;29.25;96297.91;4991362;28;20203;-85
2022/06/17 13:08:41;;;;;;;2.00;1.83;;;;;;;30.11;29.43;96302.38;4995339;28;20689;-85
2022/06/17 13:11:30;;;;;;;2.95;2.25;;;;;;;30.02;27.94;96312.03;4982766;28;20199;-85
2022/06/17 13:14:22;;;;;;;2.20;1.80;;;;;;;30.11;27.99;96305.03;4995547;28;20235;-85
2022/06/17 13:16:56;;;;;;;3.45;1.70;;;;;;;30.14;27.33;96306.34;4996035;28;20725;-84
2022/06/17 13:19:28;;;;;;;1.98;1.77;;;;;;;30.07;27.17;96298.72;4996027;28;20219;-85
2022/06/17 13:22:14;;;;;;;1.88;1.77;;;;;;;30.04;26.74;96293.94;4995213;28;20206;-85
2022/06/17 13:25:04;;;;;;;3.65;2.45;;;;;;;30.05;27.21;96289.44;4995062;28;20198;-85
2022/06/17 13:27:39;;;;;;;2.30;2.15;;;;;;;30.18;27.17;96292.22;4976023;28;20224;-85
2022/06/17 13:33:09;;;;;;;2.50;2.20;;;;;;;30.24;28.38;96283.09;4975151;28;20239;-85
2022/06/17 13:35:46;;;;;;;2.10;1.92;;;;;;;30.21;28.55;96286.31;4989332;28;20246;-85
2022/06/17 13:38:19;;;;;;;2.20;2.10;;;;;;;30.00;28.65;96285.00;4995897;28;20719;-85
2022/06/17 13:40:58;;;;;;;2.10;1.83;;;;;;;30.05;28.86;96286.78;4994462;28;20281;-85
2022/06/17 13:43:30;;;;;;;3.00;2.10;;;;;;;29.99;30.39;96287.94;4994957;28;20238;-85
2022/06/17 13:46:04;;;;;;;2.42;2.28;;;;;;;30.00;29.07;96281.53;4995366;28;20223;-85
2022/06/17 13:48:40;;;;;;;2.45;2.25;;;;;;;29.92;29.95;96292.75;4994542;28;20227;-85
2022/06/17 13:51:19;;;;;;;2.10;2.00;;;;;;;29.85;30.83;96285.09;4990578;28;20197;-85
2022/06/17 13:53:59;;;;;;;2.17;2.00;;;;;;;29.87;30.27;96285.63;4993512;28;20223;-85
2022/06/17 13:57:02;;;;;;;2.25;2.05;;;;;;;29.81;30.82;96298.19;4994531;28;20219;-85
2022/06/17 13:59:34;;;;;;;3.80;2.33;;;;;;;29.93;29.70;96294.31;4994403;28;20215;-85
2022/06/17 14:02:29;;;;;;;2.13;2.00;;;;;;;29.98;31.34;96294.31;4992865;28;20204;-84
2022/06/17 14:05:31;;;;;;;3.67;2.42;;;;;;;30.02;30.15;96295.34;4992847;28;20195;-84
2022/06/17 14:08:15;;;;;;;2.70;2.05;;;;;;;29.92;29.01;96293.53;4987806;28;20223;-83
2022/06/17 14:10:47;;;;;;;2.30;2.10;;;;;;;29.96;29.93;96291.91;4991048;28;20199;-84
2022/06/17 14:13:33;;;;;;;4.20;2.25;;;;;;;29.90;30.64;96296.47;4992773;28;20231;-83
2022/06/17 14:16:31;;;;;;;3.05;1.92;;;;;;;29.84;29.72;96289.63;4994685;28;20234;-84
2022/06/17 14:19:08;;;;;;;4.10;2.35;;;;;;;29.87;28.64;96283.75;4972293;28;20286;-84
2022/06/17 14:21:56;;;;;;;4.35;1.92;;;;;;;29.85;29.54;96282.44;4990453;28;20202;-83
2022/06/17 14:25:00;;;;;;;2.50;1.92;;;;;;;29.89;30.42;96291.44;4963036;28;20219;-83
2022/06/17 14:27:58;;;;;;;2.13;1.92;;;;;;;29.83;29.77;96279.28;4992118;28;20207;-82
2022/06/17 14:31:14;;;;;;;2.05;1.85;;;;;;;29.89;30.48;96283.47;4991954;28;20247;-83
2022/06/17 14:34:27;;;;;;;66.18;60.22;;;;;;;29.85;30.63;96272.63;4924779;28;20229;-83
2022/06/17 14:37:48;;;;;;;14.45;13.25;;;;;;;29.95;29.99;96273.59;4886718;29;20301;-84
2022/06/17 14:40:18;;;;;;;2.58;2.38;;;;;;;29.87;29.26;96272.34;4922672;28;20735;-83
2022/06/17 14:43:33;;;;;;;2.33;2.10;;;;;;;29.78;29.19;96280.16;4989176;28;20230;-82
2022/06/17 14:46:10;;;;;;;2.47;1.90;;;;;;;29.74;30.74;96280.97;4948508;28;20701;-83
2022/06/17 14:52:41;;;;;;;2.38;2.17;;;;;;;29.86;28.25;96273.41;4974204;28;20211;-83
2022/06/17 14:59:16;;;;;;;4.88;2.03;;;;;;;29.62;28.23;96276.06;4977217;28;20262;-83
2022/06/17 15:02:04;;;;;;;8.82;8.05;;;;;;;29.69;29.42;96268.53;5003461;28;20547;-84
2022/06/17 15:04:51;;;;;;;4.28;2.33;;;;;;;29.65;28.21;96269.38;4967096;28;20231;-84